Terminal Aerodrome Forecast
Issued by NWS Chicago, IL

Home | Current Version | Previous Version | Graphics & Text | Print | Product List | Glossary On
Versions: 1 2 3 4 5 6 7 8 9 10 11 12 13 14 15 16 17 18 19 20 21 22 23 24 25 26 27 28
433
FTUS43 KLOT 200244 AAA
TAFRFD
TAF AMD
KRFD 200244Z 2003/2024 17011KT P6SM BKN045 BKN250
     FM200700 19007KT P6SM VCTS OVC035CB
     FM200930 19005KT 5SM BR OVC015
     FM201300 VRB04KT 3SM BR OVC007
     FM201800 01010KT P6SM OVC008
     FM202200 03008KT P6SM BKN015=

USA.gov is the U.S. government's official web portal to all federal, state and local government web resources and services.